»·PEaware :: N710DS KVGT-KSNA

N710DS :: KVGT-KSNA

FLIGHT INFORMATION

Flight Status: Arrived
Operator: Privately registered:
United States
More flights under this callsign
Pilot: John H. (10732)
Aircraft: Unknown
(B60T)
More flights by this aircraft type
Origin: KVGT North Las Vegas
United States
Destination: KSNA John Wayne-Orange Co
United States
More flights between these airports :: More routes between these airports
Route: +NOTWN5 LAS NATEE DSNEE4
File this flight plan on PilotEdge
Remarks:
Altitude:
(Current/Filed)
28,000ft
Speed:
(Current/Filed)
300kts
Departed: 22-May-19 05:48 PM
Arrived: 22-May-19 06:45 PM
Distance/Time
Traveled:
201nm/0:57
Distance/Time
To Go:
Arrived

Flight Plot

Page will automatically refresh every two minutes.

Flight plan parsing failed; only flown route is shown


Map Options




Map Legend


Flown Route
Filed Route
Departure Airport
Arrival Airport
Navaid (VOR, NDB)
Fix

Horizontal Profiles

Position Reports

Time Latitude Longitude Heading Altitude Ground
Speed
22-May-19 17:33 36.209958 -115.199292 224 2208ft 0kts
22-May-19 17:34 36.209958 -115.199292 224 2208ft 0kts
22-May-19 17:35 36.209958 -115.199292 224 2208ft 0kts
22-May-19 17:36 36.209958 -115.199292 224 2208ft 0kts
22-May-19 17:37 36.209958 -115.199292 224 2208ft 0kts
22-May-19 17:38 36.209958 -115.199292 224 2208ft 0kts
22-May-19 17:39 36.209958 -115.199292 224 2208ft 0kts
22-May-19 17:40 36.209958 -115.199292 224 2208ft 0kts
22-May-19 17:41 36.209958 -115.199292 224 2208ft 0kts
22-May-19 17:42 36.209958 -115.199292 224 2208ft 0kts
22-May-19 17:43 36.209882 -115.199301 145 2208ft 6kts
22-May-19 17:44 36.212331 -115.201395 320 2208ft 15kts
22-May-19 17:45 36.212819 -115.203253 358 2208ft 0kts
22-May-19 17:46 36.213337 -115.203115 81 2208ft 1kts
22-May-19 17:47 36.215677 -115.182915 67 4175ft 105kts
22-May-19 17:48 36.258533 -115.192767 307 5236ft 235kts
22-May-19 17:49 36.258569 -115.261500 225 5110ft 194kts
22-May-19 17:50 36.209006 -115.259756 139 5119ft 215kts
22-May-19 17:51 36.166273 -115.206294 147 5268ft 214kts
22-May-19 17:52 36.117104 -115.180688 155 8674ft 185kts
22-May-19 17:53 36.069366 -115.164129 201 12174ft 184kts
22-May-19 17:54 36.021609 -115.188232 196 15704ft 187kts
22-May-19 17:55 35.972450 -115.210192 196 19077ft 199kts
22-May-19 17:56 35.912378 -115.238295 197 20773ft 220kts
22-May-19 17:57 35.858538 -115.263331 197 24230ft 196kts
22-May-19 17:58 35.808150 -115.286688 198 27471ft 198kts
22-May-19 17:59 35.743458 -115.316901 199 27771ft 283kts
22-May-19 18:00 35.666223 -115.353036 198 27761ft 306kts
22-May-19 18:01 35.592868 -115.406054 227 27763ft 318kts
22-May-19 18:02 35.535458 -115.489065 225 27760ft 317kts
22-May-19 18:03 35.476670 -115.568115 224 27760ft 302kts
22-May-19 18:04 35.422423 -115.640771 224 27761ft 279kts
22-May-19 18:05 35.370774 -115.709814 224 27764ft 271kts
22-May-19 18:06 35.320062 -115.777520 224 27763ft 269kts
22-May-19 18:07 35.270128 -115.844036 228 27774ft 262kts
22-May-19 18:08 35.219331 -115.911549 230 27781ft 279kts
22-May-19 18:09 35.163729 -115.981543 229 27783ft 292kts
22-May-19 18:10 35.106695 -116.053320 230 27787ft 299kts
22-May-19 18:11 35.047684 -116.127537 230 27789ft 307kts
22-May-19 18:12 34.987677 -116.202839 230 27792ft 311kts
22-May-19 18:13 34.933482 -116.270710 230 27798ft 308kts
22-May-19 18:14 34.874177 -116.344906 229 27799ft 296kts
22-May-19 18:15 34.823575 -116.409393 231 27037ft 232kts
22-May-19 18:16 34.779013 -116.466136 232 26345ft 240kts
22-May-19 18:17 34.729342 -116.529392 223 25570ft 265kts
22-May-19 18:18 34.673531 -116.594542 218 24547ft 301kts
22-May-19 18:19 34.606346 -116.660286 219 22869ft 313kts
22-May-19 18:20 34.538645 -116.726458 218 21183ft 312kts
22-May-19 18:21 34.473052 -116.796224 224 19489ft 313kts
22-May-19 18:22 34.410616 -116.868771 225 17808ft 308kts
22-May-19 18:23 34.349306 -116.939815 226 16159ft 302kts
22-May-19 18:24 34.293563 -117.003879 228 14651ft 236kts
22-May-19 18:25 34.244027 -117.050601 214 13704ft 223kts
22-May-19 18:26 34.188495 -117.090552 214 13170ft 249kts
22-May-19 18:27 34.128923 -117.125549 208 14075ft 223kts
22-May-19 18:28 34.065485 -117.158993 207 13262ft 269kts
22-May-19 18:29 33.999107 -117.196540 217 12095ft 256kts
22-May-19 18:30 33.954092 -117.257072 231 11040ft 237kts
22-May-19 18:31 33.911051 -117.316632 232 10080ft 235kts
22-May-19 18:32 33.869682 -117.375034 232 9143ft 230kts
22-May-19 18:33 33.829148 -117.432244 232 8227ft 212kts
22-May-19 18:34 33.813981 -117.496180 272 7001ft 208kts
22-May-19 18:35 33.815387 -117.564998 273 5994ft 192kts
22-May-19 18:36 33.824961 -117.630185 299 4663ft 209kts
22-May-19 18:37 33.856475 -117.686428 302 3973ft 187kts
22-May-19 18:38 33.842477 -117.743605 237 3066ft 192kts
22-May-19 18:39 33.811349 -117.783322 209 2887ft 129kts
22-May-19 18:40 33.781871 -117.801336 212 2270ft 110kts
22-May-19 18:41 33.753575 -117.819746 209 1676ft 120kts
22-May-19 18:42 33.722682 -117.839276 206 995ft 127kts
22-May-19 18:43 33.695280 -117.856536 205 387ft 102kts
22-May-19 18:44 33.674906 -117.869223 204 59ft 14kts
22-May-19 18:45 33.674258 -117.871000 296 59ft 9kts
22-May-19 18:46 33.674723 -117.871688 217 59ft 0kts

Navigation Log

Ident Type
Flight plan parsing failed, navigation log unavailable